sensor_id;sensor_type;location;lat;lon;timestamp;temperature;humidity
55828;DHT22;41758;51.992;5.890;2023-06-19T00:01:55;27.90;39.10
55828;DHT22;41758;51.992;5.890;2023-06-19T00:04:21;27.90;39.20
55828;DHT22;41758;51.992;5.890;2023-06-19T00:06:46;27.80;39.20
55828;DHT22;41758;51.992;5.890;2023-06-19T00:09:14;27.80;39.30
55828;DHT22;41758;51.992;5.890;2023-06-19T00:11:40;27.80;39.30
55828;DHT22;41758;51.992;5.890;2023-06-19T00:14:06;27.80;39.40
55828;DHT22;41758;51.992;5.890;2023-06-19T00:16:32;27.80;39.50
55828;DHT22;41758;51.992;5.890;2023-06-19T00:18:58;27.80;39.50
55828;DHT22;41758;51.992;5.890;2023-06-19T00:21:25;27.80;39.60
55828;DHT22;41758;51.992;5.890;2023-06-19T00:23:51;27.80;39.60
55828;DHT22;41758;51.992;5.890;2023-06-19T00:26:18;27.80;39.70
55828;DHT22;41758;51.992;5.890;2023-06-19T00:28:49;27.80;39.80
55828;DHT22;41758;51.992;5.890;2023-06-19T00:31:15;27.80;39.90
55828;DHT22;41758;51.992;5.890;2023-06-19T00:33:43;27.70;39.90
55828;DHT22;41758;51.992;5.890;2023-06-19T00:36:15;27.70;40.00
55828;DHT22;41758;51.992;5.890;2023-06-19T00:38:41;27.80;40.10
55828;DHT22;41758;51.992;5.890;2023-06-19T00:41:07;27.80;40.20
55828;DHT22;41758;51.992;5.890;2023-06-19T00:43:34;27.70;40.30
55828;DHT22;41758;51.992;5.890;2023-06-19T00:46:03;27.70;40.30
55828;DHT22;41758;51.992;5.890;2023-06-19T00:48:30;27.70;40.40
55828;DHT22;41758;51.992;5.890;2023-06-19T00:50:57;27.70;40.60
55828;DHT22;41758;51.992;5.890;2023-06-19T00:53:24;27.70;40.70
55828;DHT22;41758;51.992;5.890;2023-06-19T00:55:54;27.70;40.90
55828;DHT22;41758;51.992;5.890;2023-06-19T00:58:21;27.70;41.00
55828;DHT22;41758;51.992;5.890;2023-06-19T01:00:48;27.70;41.00
55828;DHT22;41758;51.992;5.890;2023-06-19T01:03:14;27.70;41.20
55828;DHT22;41758;51.992;5.890;2023-06-19T01:05:40;27.70;41.40
55828;DHT22;41758;51.992;5.890;2023-06-19T01:08:33;27.70;41.50
55828;DHT22;41758;51.992;5.890;2023-06-19T01:11:01;27.70;41.50
55828;DHT22;41758;51.992;5.890;2023-06-19T01:13:38;27.60;41.60
55828;DHT22;41758;51.992;5.890;2023-06-19T01:16:07;27.60;41.60
55828;DHT22;41758;51.992;5.890;2023-06-19T01:18:34;27.60;41.60
55828;DHT22;41758;51.992;5.890;2023-06-19T01:21:13;27.60;41.70
55828;DHT22;41758;51.992;5.890;2023-06-19T01:23:39;27.70;41.70
55828;DHT22;41758;51.992;5.890;2023-06-19T01:26:06;27.70;41.70
55828;DHT22;41758;51.992;5.890;2023-06-19T01:28:33;27.70;41.70
55828;DHT22;41758;51.992;5.890;2023-06-19T01:31:11;27.60;41.90
55828;DHT22;41758;51.992;5.890;2023-06-19T01:33:38;27.60;41.90
55828;DHT22;41758;51.992;5.890;2023-06-19T01:36:07;27.60;42.10
55828;DHT22;41758;51.992;5.890;2023-06-19T01:38:33;27.60;42.10
55828;DHT22;41758;51.992;5.890;2023-06-19T01:41:01;27.50;42.20
55828;DHT22;41758;51.992;5.890;2023-06-19T01:43:29;27.50;42.20
55828;DHT22;41758;51.992;5.890;2023-06-19T01:45:56;27.50;42.30
55828;DHT22;41758;51.992;5.890;2023-06-19T01:48:23;27.40;42.30
55828;DHT22;41758;51.992;5.890;2023-06-19T01:50:49;27.40;42.30
55828;DHT22;41758;51.992;5.890;2023-06-19T01:53:16;27.40;42.30
55828;DHT22;41758;51.992;5.890;2023-06-19T01:55:41;27.40;42.40
55828;DHT22;41758;51.992;5.890;2023-06-19T01:58:07;27.30;42.50
55828;DHT22;41758;51.992;5.890;2023-06-19T02:00:33;27.30;42.50
55828;DHT22;41758;51.992;5.890;2023-06-19T02:03:03;27.30;42.50
55828;DHT22;41758;51.992;5.890;2023-06-19T02:05:30;27.30;42.60
55828;DHT22;41758;51.992;5.890;2023-06-19T02:07:56;27.30;42.60
55828;DHT22;41758;51.992;5.890;2023-06-19T02:10:21;27.20;42.70
55828;DHT22;41758;51.992;5.890;2023-06-19T02:12:47;27.20;42.70
55828;DHT22;41758;51.992;5.890;2023-06-19T02:15:13;27.10;42.90
55828;DHT22;41758;51.992;5.890;2023-06-19T02:17:39;27.10;43.00
55828;DHT22;41758;51.992;5.890;2023-06-19T02:20:05;27.00;43.40
55828;DHT22;41758;51.992;5.890;2023-06-19T02:22:34;26.90;43.40
55828;DHT22;41758;51.992;5.890;2023-06-19T02:25:03;26.90;43.50
55828;DHT22;41758;51.992;5.890;2023-06-19T02:27:29;26.80;44.10
55828;DHT22;41758;51.992;5.890;2023-06-19T02:29:55;26.80;44.10
55828;DHT22;41758;51.992;5.890;2023-06-19T02:32:20;26.70;44.30
55828;DHT22;41758;51.992;5.890;2023-06-19T02:34:46;26.60;44.30
55828;DHT22;41758;51.992;5.890;2023-06-19T02:37:12;26.60;44.60
55828;DHT22;41758;51.992;5.890;2023-06-19T02:39:37;26.50;44.70
55828;DHT22;41758;51.992;5.890;2023-06-19T02:42:03;26.40;44.90
55828;DHT22;41758;51.992;5.890;2023-06-19T02:44:30;26.40;44.80
55828;DHT22;41758;51.992;5.890;2023-06-19T02:46:55;26.40;44.80
55828;DHT22;41758;51.992;5.890;2023-06-19T02:49:21;26.40;44.90
55828;DHT22;41758;51.992;5.890;2023-06-19T02:51:47;26.40;44.90
55828;DHT22;41758;51.992;5.890;2023-06-19T02:54:13;26.30;44.90
55828;DHT22;41758;51.992;5.890;2023-06-19T02:56:38;26.30;44.90
55828;DHT22;41758;51.992;5.890;2023-06-19T02:59:04;26.30;44.90
55828;DHT22;41758;51.992;5.890;2023-06-19T03:01:30;26.30;45.00
55828;DHT22;41758;51.992;5.890;2023-06-19T03:03:56;26.20;45.00
55828;DHT22;41758;51.992;5.890;2023-06-19T03:06:22;26.20;45.30
55828;DHT22;41758;51.992;5.890;2023-06-19T03:08:48;26.10;45.30
55828;DHT22;41758;51.992;5.890;2023-06-19T03:11:13;26.10;45.40
55828;DHT22;41758;51.992;5.890;2023-06-19T03:13:50;26.10;45.60
55828;DHT22;41758;51.992;5.890;2023-06-19T03:16:19;26.00;45.70
55828;DHT22;41758;51.992;5.890;2023-06-19T03:18:45;26.00;45.70
55828;DHT22;41758;51.992;5.890;2023-06-19T03:21:13;25.90;45.90
55828;DHT22;41758;51.992;5.890;2023-06-19T03:23:39;25.90;46.20
55828;DHT22;41758;51.992;5.890;2023-06-19T03:26:10;25.80;46.30
55828;DHT22;41758;51.992;5.890;2023-06-19T03:28:38;25.80;46.30
55828;DHT22;41758;51.992;5.890;2023-06-19T03:31:06;25.80;46.40
55828;DHT22;41758;51.992;5.890;2023-06-19T03:33:32;25.80;46.50
55828;DHT22;41758;51.992;5.890;2023-06-19T03:35:58;25.80;46.50
55828;DHT22;41758;51.992;5.890;2023-06-19T03:38:56;25.80;46.50
55828;DHT22;41758;51.992;5.890;2023-06-19T03:41:25;25.80;46.60
55828;DHT22;41758;51.992;5.890;2023-06-19T03:43:52;25.80;46.70
55828;DHT22;41758;51.992;5.890;2023-06-19T03:46:18;25.80;46.70
55828;DHT22;41758;51.992;5.890;2023-06-19T03:48:43;25.70;47.00
55828;DHT22;41758;51.992;5.890;2023-06-19T03:51:09;25.70;47.10
55828;DHT22;41758;51.992;5.890;2023-06-19T03:53:35;25.70;47.20
55828;DHT22;41758;51.992;5.890;2023-06-19T03:56:01;25.70;47.30
55828;DHT22;41758;51.992;5.890;2023-06-19T03:58:27;25.70;47.40
55828;DHT22;41758;51.992;5.890;2023-06-19T04:00:52;25.70;47.40
55828;DHT22;41758;51.992;5.890;2023-06-19T04:03:18;25.70;47.50
55828;DHT22;41758;51.992;5.890;2023-06-19T04:05:45;25.70;47.50
55828;DHT22;41758;51.992;5.890;2023-06-19T04:08:11;25.70;47.60
55828;DHT22;41758;51.992;5.890;2023-06-19T04:10:38;25.70;47.60
55828;DHT22;41758;51.992;5.890;2023-06-19T04:13:04;25.70;47.70
55828;DHT22;41758;51.992;5.890;2023-06-19T04:15:33;25.70;47.70
55828;DHT22;41758;51.992;5.890;2023-06-19T04:17:59;25.70;47.80
55828;DHT22;41758;51.992;5.890;2023-06-19T04:20:26;25.70;47.90
55828;DHT22;41758;51.992;5.890;2023-06-19T04:22:52;25.70;47.90
55828;DHT22;41758;51.992;5.890;2023-06-19T04:25:18;25.70;47.90
55828;DHT22;41758;51.992;5.890;2023-06-19T04:27:44;25.70;48.00
55828;DHT22;41758;51.992;5.890;2023-06-19T04:30:12;25.70;48.20
55828;DHT22;41758;51.992;5.890;2023-06-19T04:32:38;25.60;48.30
55828;DHT22;41758;51.992;5.890;2023-06-19T04:35:10;25.60;48.30
55828;DHT22;41758;51.992;5.890;2023-06-19T04:37:36;25.60;48.40
55828;DHT22;41758;51.992;5.890;2023-06-19T04:40:02;25.60;48.50
55828;DHT22;41758;51.992;5.890;2023-06-19T04:42:29;25.60;48.60
55828;DHT22;41758;51.992;5.890;2023-06-19T04:44:54;25.60;48.60
55828;DHT22;41758;51.992;5.890;2023-06-19T04:47:22;25.60;48.70
55828;DHT22;41758;51.992;5.890;2023-06-19T04:49:48;25.60;48.90
55828;DHT22;41758;51.992;5.890;2023-06-19T04:52:14;25.60;48.90
55828;DHT22;41758;51.992;5.890;2023-06-19T04:54:40;25.50;49.20
55828;DHT22;41758;51.992;5.890;2023-06-19T04:57:06;25.50;49.30
55828;DHT22;41758;51.992;5.890;2023-06-19T04:59:32;25.50;49.30
55828;DHT22;41758;51.992;5.890;2023-06-19T05:01:59;25.50;49.80
55828;DHT22;41758;51.992;5.890;2023-06-19T05:04:25;25.50;49.80
55828;DHT22;41758;51.992;5.890;2023-06-19T05:06:51;25.50;49.80
55828;DHT22;41758;51.992;5.890;2023-06-19T05:09:17;25.50;49.90
55828;DHT22;41758;51.992;5.890;2023-06-19T05:11:43;25.50;50.20
55828;DHT22;41758;51.992;5.890;2023-06-19T05:14:09;25.50;50.20
55828;DHT22;41758;51.992;5.890;2023-06-19T05:16:35;25.50;50.50
55828;DHT22;41758;51.992;5.890;2023-06-19T05:19:04;25.50;50.50
55828;DHT22;41758;51.992;5.890;2023-06-19T05:21:31;25.40;50.90
55828;DHT22;41758;51.992;5.890;2023-06-19T05:23:56;25.40;50.80
55828;DHT22;41758;51.992;5.890;2023-06-19T05:26:22;25.40;50.90
55828;DHT22;41758;51.992;5.890;2023-06-19T05:28:50;25.40;51.00
55828;DHT22;41758;51.992;5.890;2023-06-19T05:31:16;25.30;51.10
55828;DHT22;41758;51.992;5.890;2023-06-19T05:33:42;25.30;51.40
55828;DHT22;41758;51.992;5.890;2023-06-19T05:36:08;25.30;51.40
55828;DHT22;41758;51.992;5.890;2023-06-19T05:38:33;25.30;51.50
55828;DHT22;41758;51.992;5.890;2023-06-19T05:40:59;25.30;51.50
55828;DHT22;41758;51.992;5.890;2023-06-19T05:43:26;25.30;51.60
55828;DHT22;41758;51.992;5.890;2023-06-19T05:45:53;25.30;51.70
55828;DHT22;41758;51.992;5.890;2023-06-19T05:48:19;25.30;51.70
55828;DHT22;41758;51.992;5.890;2023-06-19T05:50:45;25.30;51.80
55828;DHT22;41758;51.992;5.890;2023-06-19T05:53:11;25.40;51.80
55828;DHT22;41758;51.992;5.890;2023-06-19T05:55:36;25.30;51.90
55828;DHT22;41758;51.992;5.890;2023-06-19T05:58:02;25.40;52.10
55828;DHT22;41758;51.992;5.890;2023-06-19T06:00:29;25.40;52.10
55828;DHT22;41758;51.992;5.890;2023-06-19T06:02:56;25.40;51.90
55828;DHT22;41758;51.992;5.890;2023-06-19T06:05:28;25.40;52.40
55828;DHT22;41758;51.992;5.890;2023-06-19T06:07:54;25.40;52.20
55828;DHT22;41758;51.992;5.890;2023-06-19T06:10:24;25.40;52.40
55828;DHT22;41758;51.992;5.890;2023-06-19T06:12:50;25.50;52.30
55828;DHT22;41758;51.992;5.890;2023-06-19T06:15:16;25.50;52.40
55828;DHT22;41758;51.992;5.890;2023-06-19T06:17:42;25.50;52.40
55828;DHT22;41758;51.992;5.890;2023-06-19T06:20:09;25.50;52.50
55828;DHT22;41758;51.992;5.890;2023-06-19T06:22:42;25.50;52.50
55828;DHT22;41758;51.992;5.890;2023-06-19T06:25:08;25.50;52.50
55828;DHT22;41758;51.992;5.890;2023-06-19T06:27:35;25.50;52.50
55828;DHT22;41758;51.992;5.890;2023-06-19T06:30:02;25.50;52.70
55828;DHT22;41758;51.992;5.890;2023-06-19T06:32:27;25.50;52.60
55828;DHT22;41758;51.992;5.890;2023-06-19T06:34:54;25.60;52.50
55828;DHT22;41758;51.992;5.890;2023-06-19T06:37:20;25.60;52.60
55828;DHT22;41758;51.992;5.890;2023-06-19T06:39:48;25.60;52.70
55828;DHT22;41758;51.992;5.890;2023-06-19T06:42:18;25.60;52.70
55828;DHT22;41758;51.992;5.890;2023-06-19T06:44:44;25.60;52.60
55828;DHT22;41758;51.992;5.890;2023-06-19T06:47:10;25.60;52.60
55828;DHT22;41758;51.992;5.890;2023-06-19T06:49:36;25.60;52.70
55828;DHT22;41758;51.992;5.890;2023-06-19T06:52:05;25.60;52.70
55828;DHT22;41758;51.992;5.890;2023-06-19T06:54:31;25.60;52.80
55828;DHT22;41758;51.992;5.890;2023-06-19T06:56:57;25.60;52.70
55828;DHT22;41758;51.992;5.890;2023-06-19T06:59:25;25.60;52.80
55828;DHT22;41758;51.992;5.890;2023-06-19T07:01:53;25.60;52.80
55828;DHT22;41758;51.992;5.890;2023-06-19T07:04:18;25.50;52.70
55828;DHT22;41758;51.992;5.890;2023-06-19T07:06:44;25.50;52.70
55828;DHT22;41758;51.992;5.890;2023-06-19T07:09:10;25.50;52.70
55828;DHT22;41758;51.992;5.890;2023-06-19T07:11:35;25.50;52.70
55828;DHT22;41758;51.992;5.890;2023-06-19T07:14:02;25.50;52.70
55828;DHT22;41758;51.992;5.890;2023-06-19T07:16:28;25.50;52.60
55828;DHT22;41758;51.992;5.890;2023-06-19T07:18:53;25.60;52.60
55828;DHT22;41758;51.992;5.890;2023-06-19T07:21:19;25.60;52.60
55828;DHT22;41758;51.992;5.890;2023-06-19T07:23:46;25.60;52.60
55828;DHT22;41758;51.992;5.890;2023-06-19T07:26:14;25.60;52.60
55828;DHT22;41758;51.992;5.890;2023-06-19T07:28:40;25.70;52.60
55828;DHT22;41758;51.992;5.890;2023-06-19T07:31:06;25.80;52.50
55828;DHT22;41758;51.992;5.890;2023-06-19T07:33:31;25.80;52.40
55828;DHT22;41758;51.992;5.890;2023-06-19T07:35:57;25.80;52.40
55828;DHT22;41758;51.992;5.890;2023-06-19T07:38:23;25.90;52.30
55828;DHT22;41758;51.992;5.890;2023-06-19T07:40:49;26.00;52.30
55828;DHT22;41758;51.992;5.890;2023-06-19T07:43:15;26.00;52.10
55828;DHT22;41758;51.992;5.890;2023-06-19T07:45:40;26.10;52.00
55828;DHT22;41758;51.992;5.890;2023-06-19T07:48:06;26.20;51.90
55828;DHT22;41758;51.992;5.890;2023-06-19T07:50:32;26.20;51.80
55828;DHT22;41758;51.992;5.890;2023-06-19T07:52:58;26.30;51.60
55828;DHT22;41758;51.992;5.890;2023-06-19T07:55:23;26.30;51.50
55828;DHT22;41758;51.992;5.890;2023-06-19T07:57:49;26.30;50.90
55828;DHT22;41758;51.992;5.890;2023-06-19T08:00:15;26.30;50.60
55828;DHT22;41758;51.992;5.890;2023-06-19T08:02:42;26.30;50.70
55828;DHT22;41758;51.992;5.890;2023-06-19T08:05:08;26.20;50.40
55828;DHT22;41758;51.992;5.890;2023-06-19T08:07:35;26.20;50.40
55828;DHT22;41758;51.992;5.890;2023-06-19T08:10:01;26.10;50.50
55828;DHT22;41758;51.992;5.890;2023-06-19T08:12:29;26.20;50.60
55828;DHT22;41758;51.992;5.890;2023-06-19T08:14:55;26.20;50.60
55828;DHT22;41758;51.992;5.890;2023-06-19T08:17:20;26.30;50.50
55828;DHT22;41758;51.992;5.890;2023-06-19T08:19:47;26.40;50.20
55828;DHT22;41758;51.992;5.890;2023-06-19T08:22:12;26.40;50.10
55828;DHT22;41758;51.992;5.890;2023-06-19T08:24:38;26.40;50.10
55828;DHT22;41758;51.992;5.890;2023-06-19T08:27:06;26.40;49.80
55828;DHT22;41758;51.992;5.890;2023-06-19T08:29:32;26.40;49.80
55828;DHT22;41758;51.992;5.890;2023-06-19T08:31:58;26.50;49.80
55828;DHT22;41758;51.992;5.890;2023-06-19T08:34:23;26.50;49.80
55828;DHT22;41758;51.992;5.890;2023-06-19T08:36:49;26.50;49.30
55828;DHT22;41758;51.992;5.890;2023-06-19T08:39:15;26.40;49.30
55828;DHT22;41758;51.992;5.890;2023-06-19T08:41:42;26.40;49.30
55828;DHT22;41758;51.992;5.890;2023-06-19T08:44:08;26.40;49.40
55828;DHT22;41758;51.992;5.890;2023-06-19T08:46:35;26.40;49.50
55828;DHT22;41758;51.992;5.890;2023-06-19T08:49:03;26.50;49.40
55828;DHT22;41758;51.992;5.890;2023-06-19T08:51:31;26.60;49.30
55828;DHT22;41758;51.992;5.890;2023-06-19T08:54:05;26.60;49.30
55828;DHT22;41758;51.992;5.890;2023-06-19T08:56:32;26.70;49.30
55828;DHT22;41758;51.992;5.890;2023-06-19T08:59:13;26.80;49.30
55828;DHT22;41758;51.992;5.890;2023-06-19T09:01:40;26.90;49.00
55828;DHT22;41758;51.992;5.890;2023-06-19T09:04:13;26.90;49.00
55828;DHT22;41758;51.992;5.890;2023-06-19T09:06:50;26.90;48.90
55828;DHT22;41758;51.992;5.890;2023-06-19T09:09:17;26.90;49.00
55828;DHT22;41758;51.992;5.890;2023-06-19T09:11:43;27.00;49.00
55828;DHT22;41758;51.992;5.890;2023-06-19T09:14:10;27.10;49.00
55828;DHT22;41758;51.992;5.890;2023-06-19T09:16:40;27.10;49.00
55828;DHT22;41758;51.992;5.890;2023-06-19T09:19:07;27.20;48.90
55828;DHT22;41758;51.992;5.890;2023-06-19T09:21:36;27.30;48.60
55828;DHT22;41758;51.992;5.890;2023-06-19T09:24:07;27.30;48.50
55828;DHT22;41758;51.992;5.890;2023-06-19T09:26:34;27.30;48.50
55828;DHT22;41758;51.992;5.890;2023-06-19T09:29:18;27.30;48.50
55828;DHT22;41758;51.992;5.890;2023-06-19T09:31:44;27.30;48.50
55828;DHT22;41758;51.992;5.890;2023-06-19T09:34:10;27.40;48.60
55828;DHT22;41758;51.992;5.890;2023-06-19T09:36:36;27.50;48.60
55828;DHT22;41758;51.992;5.890;2023-06-19T09:39:03;27.60;48.50
55828;DHT22;41758;51.992;5.890;2023-06-19T09:41:30;27.60;48.30
55828;DHT22;41758;51.992;5.890;2023-06-19T09:43:57;27.80;48.10
55828;DHT22;41758;51.992;5.890;2023-06-19T09:46:30;27.80;48.20
55828;DHT22;41758;51.992;5.890;2023-06-19T09:49:01;27.90;48.20
55828;DHT22;41758;51.992;5.890;2023-06-19T09:51:37;27.90;48.10
55828;DHT22;41758;51.992;5.890;2023-06-19T09:54:05;28.00;47.90
55828;DHT22;41758;51.992;5.890;2023-06-19T09:56:32;28.00;47.70
55828;DHT22;41758;51.992;5.890;2023-06-19T09:59:00;28.10;47.60
55828;DHT22;41758;51.992;5.890;2023-06-19T10:01:27;28.00;47.50
55828;DHT22;41758;51.992;5.890;2023-06-19T10:04:09;28.10;47.20
55828;DHT22;41758;51.992;5.890;2023-06-19T10:06:44;28.00;47.20
55828;DHT22;41758;51.992;5.890;2023-06-19T10:09:10;28.10;47.20
55828;DHT22;41758;51.992;5.890;2023-06-19T10:11:52;28.10;47.20
55828;DHT22;41758;51.992;5.890;2023-06-19T10:14:19;28.10;46.90
55828;DHT22;41758;51.992;5.890;2023-06-19T10:16:46;28.10;46.70
55828;DHT22;41758;51.992;5.890;2023-06-19T10:19:15;28.20;46.60
55828;DHT22;41758;51.992;5.890;2023-06-19T10:21:53;28.20;46.60
55828;DHT22;41758;51.992;5.890;2023-06-19T10:24:19;28.30;46.60
55828;DHT22;41758;51.992;5.890;2023-06-19T10:27:02;28.40;46.80
55828;DHT22;41758;51.992;5.890;2023-06-19T10:29:39;28.60;46.60
55828;DHT22;41758;51.992;5.890;2023-06-19T10:32:05;28.70;46.30
55828;DHT22;41758;51.992;5.890;2023-06-19T10:34:35;28.70;46.20
55828;DHT22;41758;51.992;5.890;2023-06-19T10:37:00;28.80;46.20
55828;DHT22;41758;51.992;5.890;2023-06-19T10:39:27;28.90;45.80
55828;DHT22;41758;51.992;5.890;2023-06-19T10:41:52;28.90;45.80
55828;DHT22;41758;51.992;5.890;2023-06-19T10:44:18;28.90;45.90
55828;DHT22;41758;51.992;5.890;2023-06-19T10:46:44;29.00;45.60
55828;DHT22;41758;51.992;5.890;2023-06-19T10:49:10;29.10;45.20
55828;DHT22;41758;51.992;5.890;2023-06-19T10:51:39;29.10;45.10
55828;DHT22;41758;51.992;5.890;2023-06-19T10:54:06;29.20;45.10
55828;DHT22;41758;51.992;5.890;2023-06-19T10:56:32;29.30;45.30
55828;DHT22;41758;51.992;5.890;2023-06-19T10:59:06;29.40;45.20
55828;DHT22;41758;51.992;5.890;2023-06-19T11:01:36;29.40;44.90
55828;DHT22;41758;51.992;5.890;2023-06-19T11:04:09;29.60;44.90
55828;DHT22;41758;51.992;5.890;2023-06-19T11:06:36;29.70;44.70
55828;DHT22;41758;51.992;5.890;2023-06-19T11:09:03;29.80;44.40
55828;DHT22;41758;51.992;5.890;2023-06-19T11:11:45;29.90;44.20
55828;DHT22;41758;51.992;5.890;2023-06-19T11:14:12;30.00;43.90
55828;DHT22;41758;51.992;5.890;2023-06-19T11:16:41;30.00;43.70
55828;DHT22;41758;51.992;5.890;2023-06-19T11:19:16;30.10;43.60
55828;DHT22;41758;51.992;5.890;2023-06-19T11:21:47;30.20;43.40
55828;DHT22;41758;51.992;5.890;2023-06-19T11:24:15;30.30;43.30
55828;DHT22;41758;51.992;5.890;2023-06-19T11:26:45;30.40;43.20
55828;DHT22;41758;51.992;5.890;2023-06-19T11:29:19;30.40;42.90
55828;DHT22;41758;51.992;5.890;2023-06-19T11:31:46;30.40;42.00
55828;DHT22;41758;51.992;5.890;2023-06-19T11:34:13;30.30;42.20
55828;DHT22;41758;51.992;5.890;2023-06-19T11:36:41;30.30;42.40
55828;DHT22;41758;51.992;5.890;2023-06-19T11:39:15;30.30;42.10
55828;DHT22;41758;51.992;5.890;2023-06-19T11:41:44;30.40;42.10
55828;DHT22;41758;51.992;5.890;2023-06-19T11:44:10;30.40;42.20
55828;DHT22;41758;51.992;5.890;2023-06-19T11:46:36;30.50;42.30
55828;DHT22;41758;51.992;5.890;2023-06-19T11:49:16;30.60;42.00
55828;DHT22;41758;51.992;5.890;2023-06-19T11:51:46;30.80;42.00
55828;DHT22;41758;51.992;5.890;2023-06-19T11:54:14;30.90;41.90
55828;DHT22;41758;51.992;5.890;2023-06-19T11:56:48;31.00;41.80
55828;DHT22;41758;51.992;5.890;2023-06-19T11:59:15;31.10;41.50
55828;DHT22;41758;51.992;5.890;2023-06-19T12:01:40;31.20;41.10
55828;DHT22;41758;51.992;5.890;2023-06-19T12:04:06;31.30;40.70
55828;DHT22;41758;51.992;5.890;2023-06-19T12:06:32;31.30;40.80
55828;DHT22;41758;51.992;5.890;2023-06-19T12:08:58;31.40;40.00
55828;DHT22;41758;51.992;5.890;2023-06-19T12:11:24;31.40;40.10
55828;DHT22;41758;51.992;5.890;2023-06-19T12:13:50;31.50;39.90
55828;DHT22;41758;51.992;5.890;2023-06-19T12:16:16;31.60;39.60
55828;DHT22;41758;51.992;5.890;2023-06-19T12:18:42;31.60;38.80
55828;DHT22;41758;51.992;5.890;2023-06-19T12:21:08;31.70;39.10
55828;DHT22;41758;51.992;5.890;2023-06-19T12:23:34;31.80;39.20
55828;DHT22;41758;51.992;5.890;2023-06-19T12:26:00;31.90;38.50
55828;DHT22;41758;51.992;5.890;2023-06-19T12:28:26;31.90;38.30
55828;DHT22;41758;51.992;5.890;2023-06-19T12:30:52;32.00;38.30
55828;DHT22;41758;51.992;5.890;2023-06-19T12:33:19;32.10;38.10
55828;DHT22;41758;51.992;5.890;2023-06-19T12:35:46;32.20;38.10
55828;DHT22;41758;51.992;5.890;2023-06-19T12:38:12;32.40;38.00
55828;DHT22;41758;51.992;5.890;2023-06-19T12:40:38;32.50;37.80
55828;DHT22;41758;51.992;5.890;2023-06-19T12:43:04;32.60;37.20
55828;DHT22;41758;51.992;5.890;2023-06-19T12:45:30;32.60;37.00
55828;DHT22;41758;51.992;5.890;2023-06-19T12:47:55;32.60;36.60
55828;DHT22;41758;51.992;5.890;2023-06-19T12:50:21;32.70;36.50
55828;DHT22;41758;51.992;5.890;2023-06-19T12:52:48;32.70;36.50
55828;DHT22;41758;51.992;5.890;2023-06-19T12:55:13;32.80;36.50
55828;DHT22;41758;51.992;5.890;2023-06-19T12:57:39;32.90;35.70
55828;DHT22;41758;51.992;5.890;2023-06-19T13:00:09;32.90;35.80
55828;DHT22;41758;51.992;5.890;2023-06-19T13:02:35;32.90;35.80
55828;DHT22;41758;51.992;5.890;2023-06-19T13:05:01;33.00;35.80
55828;DHT22;41758;51.992;5.890;2023-06-19T13:07:27;33.00;35.50
55828;DHT22;41758;51.992;5.890;2023-06-19T13:09:53;33.00;35.10
55828;DHT22;41758;51.992;5.890;2023-06-19T13:12:18;33.20;35.20
55828;DHT22;41758;51.992;5.890;2023-06-19T13:14:44;33.20;35.30
55828;DHT22;41758;51.992;5.890;2023-06-19T13:17:10;33.30;35.10
55828;DHT22;41758;51.992;5.890;2023-06-19T13:19:36;33.40;34.80
55828;DHT22;41758;51.992;5.890;2023-06-19T13:22:02;33.40;34.40
55828;DHT22;41758;51.992;5.890;2023-06-19T13:24:27;33.40;34.40
55828;DHT22;41758;51.992;5.890;2023-06-19T13:26:54;33.40;34.30
55828;DHT22;41758;51.992;5.890;2023-06-19T13:29:19;33.30;34.40
55828;DHT22;41758;51.992;5.890;2023-06-19T13:31:45;33.40;34.30
55828;DHT22;41758;51.992;5.890;2023-06-19T13:34:11;33.40;34.00
55828;DHT22;41758;51.992;5.890;2023-06-19T13:36:37;33.40;34.00
55828;DHT22;41758;51.992;5.890;2023-06-19T13:39:03;33.40;34.30
55828;DHT22;41758;51.992;5.890;2023-06-19T13:41:30;33.50;34.30
55828;DHT22;41758;51.992;5.890;2023-06-19T13:44:00;33.60;34.40
55828;DHT22;41758;51.992;5.890;2023-06-19T13:46:26;33.60;34.40
55828;DHT22;41758;51.992;5.890;2023-06-19T13:48:52;33.70;34.10
55828;DHT22;41758;51.992;5.890;2023-06-19T13:51:21;33.80;34.00
55828;DHT22;41758;51.992;5.890;2023-06-19T13:53:48;33.80;34.00
55828;DHT22;41758;51.992;5.890;2023-06-19T13:56:14;33.80;34.00
55828;DHT22;41758;51.992;5.890;2023-06-19T13:58:41;33.90;33.80
55828;DHT22;41758;51.992;5.890;2023-06-19T14:01:07;33.80;33.60
55828;DHT22;41758;51.992;5.890;2023-06-19T14:03:33;33.80;33.60
55828;DHT22;41758;51.992;5.890;2023-06-19T14:05:59;33.90;33.80
55828;DHT22;41758;51.992;5.890;2023-06-19T14:08:25;33.90;33.40
55828;DHT22;41758;51.992;5.890;2023-06-19T14:10:51;33.90;33.30
55828;DHT22;41758;51.992;5.890;2023-06-19T14:13:17;33.80;33.10
55828;DHT22;41758;51.992;5.890;2023-06-19T14:15:42;33.70;33.10
55828;DHT22;41758;51.992;5.890;2023-06-19T14:18:08;33.70;33.30
55828;DHT22;41758;51.992;5.890;2023-06-19T14:20:34;33.70;33.40
55828;DHT22;41758;51.992;5.890;2023-06-19T14:23:00;33.70;33.50
55828;DHT22;41758;51.992;5.890;2023-06-19T14:25:25;33.70;33.60
55828;DHT22;41758;51.992;5.890;2023-06-19T14:27:51;33.70;33.40
55828;DHT22;41758;51.992;5.890;2023-06-19T14:30:17;33.80;33.40
55828;DHT22;41758;51.992;5.890;2023-06-19T14:32:43;33.80;33.50
55828;DHT22;41758;51.992;5.890;2023-06-19T14:35:09;33.80;33.50
55828;DHT22;41758;51.992;5.890;2023-06-19T14:37:35;33.80;33.60
55828;DHT22;41758;51.992;5.890;2023-06-19T14:40:00;33.90;33.70
55828;DHT22;41758;51.992;5.890;2023-06-19T14:42:26;34.10;33.60
55828;DHT22;41758;51.992;5.890;2023-06-19T14:44:52;34.10;33.60
55828;DHT22;41758;51.992;5.890;2023-06-19T14:47:17;34.20;33.30
55828;DHT22;41758;51.992;5.890;2023-06-19T14:49:43;34.20;33.20
55828;DHT22;41758;51.992;5.890;2023-06-19T14:52:08;34.30;33.20
55828;DHT22;41758;51.992;5.890;2023-06-19T14:54:34;34.40;33.30
55828;DHT22;41758;51.992;5.890;2023-06-19T14:57:00;34.40;33.20
55828;DHT22;41758;51.992;5.890;2023-06-19T14:59:26;34.40;33.00
55828;DHT22;41758;51.992;5.890;2023-06-19T15:01:51;34.50;32.90
55828;DHT22;41758;51.992;5.890;2023-06-19T15:04:17;34.50;33.00
55828;DHT22;41758;51.992;5.890;2023-06-19T15:06:43;34.50;33.00
55828;DHT22;41758;51.992;5.890;2023-06-19T15:09:08;34.50;32.90
55828;DHT22;41758;51.992;5.890;2023-06-19T15:11:34;34.50;32.90
55828;DHT22;41758;51.992;5.890;2023-06-19T15:14:00;34.60;33.10
55828;DHT22;41758;51.992;5.890;2023-06-19T15:16:26;34.70;33.00
55828;DHT22;41758;51.992;5.890;2023-06-19T15:18:52;34.80;33.00
55828;DHT22;41758;51.992;5.890;2023-06-19T15:21:18;34.90;33.00
55828;DHT22;41758;51.992;5.890;2023-06-19T15:23:43;35.00;32.90
55828;DHT22;41758;51.992;5.890;2023-06-19T15:26:09;35.10;32.80
55828;DHT22;41758;51.992;5.890;2023-06-19T15:28:35;35.10;32.70
55828;DHT22;41758;51.992;5.890;2023-06-19T15:31:04;35.10;32.70